KDLH/DLH METAR and TAF weather

Enter ICAO airport designator
Station Type Date Time Source
KDLH METAR 2020/04/06 16:55 UTC NOAA

KDLH 061655Z 11013KT 10SM OVC080 06/M01 A2995 RMK AO2 SLP156 T00611011


Station Type Date Time Source
KDLH Decoded METAR 2020/04/06 16:55 UTC NOAA

Duluth, Duluth International Airport, MN, United States (KDLH) 46-50-34N 092-13-34W 435M
Apr 06, 2020 - 12:55 PM EDT / 2020.04.06 1655 UTC
Wind: from the ESE (110 degrees) at 15 MPH (13 KT):0
Visibility: 10 mile(s):0
Sky conditions: overcast
Temperature: 43.0 F (6.1 C)
Dew Point: 30.0 F (-1.1 C)
Relative Humidity: 59%
Pressure (altimeter): 29.95 in. Hg (1014 hPa)
ob: KDLH 061655Z 11013KT 10SM OVC080 06/M01 A2995 RMK AO2 SLP156 T00611011
cycle: 17

Station Type Date Time Source
KDLH TAF 2020/04/06 12:34 UTC NOAA

TAF KDLH 061132Z 0612/0712 10008KT P6SM VCSH BKN060 OVC090
TEMPO 0613/0616 6SM -RA SCT020 OVC035
FM061700 10009KT P6SM SCT020 BKN040
FM070500 10008KT P6SM OVC018
FM070800 10007KT 5SM -RA BR OVC008

Example: see airport list